Time;durP1;ratioP1;P1;durP2;ratioP2;P2;SDS_P1;SDS_P2;PMS_P1;PMS_P2;Temp;Humidity;BMP_temperature;BMP_pressure;BME280_temperature;BME280_humidity;BME280_pressure;Samples;Min_cycle;Max_cycle;Signal;HPM_P1;HPM_P2
2023/05/01 00:02:18;;;;;;;4.80;3.03;;;;;;;-145.18;100.00;46633.06;4948542;29;20027;-69
2023/05/01 00:04:43;;;;;;;4.90;3.00;;;;;;;-145.18;100.00;46642.81;4950923;29;20146;-69
2023/05/01 00:07:08;;;;;;;5.03;3.33;;;;;;;-145.18;100.00;46625.22;4951054;29;20054;-69
2023/05/01 00:09:34;;;;;;;6.30;3.80;;;;;;;-145.18;100.00;46625.22;4951499;29;20154;-69
2023/05/01 00:11:59;;;;;;;4.43;3.53;;;;;;;-145.18;100.00;46603.75;4950723;29;20043;-69
2023/05/01 00:14:24;;;;;;;6.43;3.63;;;;;;;-145.18;100.00;46613.50;4950781;29;20051;-69
2023/05/01 00:16:50;;;;;;;5.73;4.07;;;;;;;-145.18;100.00;46611.56;4951173;29;20035;-69
2023/05/01 00:19:17;;;;;;;4.73;3.43;;;;;;;-145.18;100.00;46635.00;4951159;29;20075;-69
2023/05/01 00:21:47;;;;;;;6.57;4.30;;;;;;;-145.18;100.00;46636.94;4951109;29;20049;-69
2023/05/01 00:24:14;;;;;;;8.87;4.53;;;;;;;-145.18;100.00;46635.00;4933619;29;20400;-69
2023/05/01 00:26:39;;;;;;;6.00;4.37;;;;;;;-145.18;100.00;46640.88;4950896;29;20035;-69
2023/05/01 00:29:05;;;;;;;9.50;4.97;;;;;;;-145.18;100.00;46635.00;4950794;29;20043;-69
2023/05/01 00:31:30;;;;;;;8.03;4.57;;;;;;;-145.18;100.00;46640.88;4951310;29;20519;-69
2023/05/01 00:33:56;;;;;;;9.57;4.47;;;;;;;-145.18;100.00;46640.88;4951081;29;20090;-69
2023/05/01 00:36:21;;;;;;;8.83;4.93;;;;;;;-145.18;100.00;46609.59;4950805;29;20163;-69
2023/05/01 00:38:47;;;;;;;11.70;4.60;;;;;;;-145.18;100.00;46613.50;4950653;29;20054;-69
2023/05/01 00:41:12;;;;;;;8.37;4.33;;;;;;;-145.18;100.00;46613.50;4951056;29;20049;-69
2023/05/01 00:43:37;;;;;;;6.97;4.20;;;;;;;-145.18;100.00;46617.41;4950759;29;20043;-69
2023/05/01 00:46:03;;;;;;;6.70;4.37;;;;;;;-145.18;100.00;46625.22;4951064;29;20043;-69
2023/05/01 00:48:29;;;;;;;11.93;4.77;;;;;;;-145.18;100.00;46623.28;4950612;29;20618;-69
2023/05/01 00:50:55;;;;;;;7.73;4.57;;;;;;;-145.18;100.00;46611.56;4951021;29;20038;-69
2023/05/01 00:53:23;;;;;;;9.13;5.17;;;;;;;-145.18;100.00;46607.66;4950252;29;20035;-69
2023/05/01 00:55:49;;;;;;;6.73;4.67;;;;;;;-145.18;100.00;46621.31;4950874;29;20046;-69
2023/05/01 00:58:17;;;;;;;8.10;5.07;;;;;;;-145.18;100.00;46623.28;4950866;29;20053;-69
2023/05/01 01:00:43;;;;;;;6.37;4.13;;;;;;;-145.18;100.00;46607.66;4950479;29;20031;-69
2023/05/01 01:03:09;;;;;;;7.37;4.20;;;;;;;-145.18;100.00;46623.28;4950772;29;20093;-69
2023/05/01 01:05:40;;;;;;;9.67;4.77;;;;;;;-145.18;100.00;46623.28;4951428;28;20079;-69
2023/05/01 01:08:29;;;;;;;8.73;3.83;;;;;;;-145.18;100.00;46621.31;4954035;29;20035;-69
2023/05/01 01:10:57;;;;;;;9.77;4.27;;;;;;;-145.18;100.00;46627.19;4952042;29;20035;-69
2023/05/01 01:13:39;;;;;;;11.27;4.60;;;;;;;-145.18;100.00;46631.09;4953981;29;20047;-69
2023/05/01 01:16:14;;;;;;;8.13;4.50;;;;;;;-145.18;100.00;46623.28;4952809;29;20840;-69
2023/05/01 01:18:51;;;;;;;8.80;5.05;;;;;;;-145.18;100.00;46625.22;4952190;29;20353;-69
2023/05/01 01:21:31;;;;;;;11.50;4.60;;;;;;;-145.18;100.00;46623.28;4953922;29;20031;-69
2023/05/01 01:24:17;;;;;;;8.10;4.20;;;;;;;-145.18;100.00;46621.31;4954324;29;20043;-69
2023/05/01 01:27:02;;;;;;;8.87;4.63;;;;;;;-145.18;100.00;46619.38;4954136;29;20074;-69
2023/05/01 01:30:07;;;;;;;6.50;4.00;;;;;;;-145.18;100.00;46611.56;4950285;29;20129;-69
2023/05/01 01:32:51;;;;;;;10.10;3.90;;;;;;;-145.18;100.00;46609.59;4949566;29;20465;-69
2023/05/01 01:35:25;;;;;;;6.60;4.07;;;;;;;-145.18;100.00;46613.50;4953068;29;20129;-69
2023/05/01 01:38:00;;;;;;;7.60;3.87;;;;;;;-145.18;100.00;46617.41;4953886;29;20539;-69
2023/05/01 01:40:34;;;;;;;6.72;4.25;;;;;;;-145.18;100.00;46597.88;4953504;29;20101;-69
2023/05/01 01:43:04;;;;;;;7.00;3.80;;;;;;;-145.18;100.00;46613.50;4951266;29;20067;-69
2023/05/01 01:45:36;;;;;;;6.20;3.83;;;;;;;-145.18;100.00;46607.66;4953965;29;20488;-69
2023/05/01 01:48:03;;;;;;;5.43;4.10;;;;;;;-145.18;100.00;46640.88;4951288;29;20035;-69
2023/05/01 01:50:30;;;;;;;8.20;4.57;;;;;;;-145.18;100.00;46615.47;4953173;29;20500;-69
2023/05/01 01:52:59;;;;;;;7.43;4.10;;;;;;;-145.18;100.00;46617.41;4953556;29;20023;-69
2023/05/01 01:55:28;;;;;;;9.43;4.10;;;;;;;-145.18;100.00;46627.19;4953266;29;20281;-69
2023/05/01 01:57:55;;;;;;;6.83;3.93;;;;;;;-145.18;100.00;46613.50;4951624;29;20031;-69
2023/05/01 02:00:21;;;;;;;7.33;4.13;;;;;;;-145.18;100.00;46613.50;4953266;29;20041;-69
2023/05/01 02:02:48;;;;;;;11.37;4.30;;;;;;;-145.18;100.00;46607.66;5256798;23;20462;-69
2023/05/01 02:05:16;;;;;;;6.80;4.27;;;;;;;-145.18;100.00;46617.41;4988792;28;20030;-69
2023/05/01 02:07:45;;;;;;;10.97;4.37;;;;;;;-145.18;100.00;46611.56;4991682;28;20038;-69
2023/05/01 02:10:13;;;;;;;10.00;4.37;;;;;;;-145.18;100.00;46597.88;4992581;28;20049;-68
2023/05/01 02:12:41;;;;;;;6.50;3.30;;;;;;;-145.18;100.00;46611.56;4978937;28;20030;-68
2023/05/01 02:15:09;;;;;;;8.07;4.77;;;;;;;-145.18;100.00;46619.38;4973145;28;20070;-68
2023/05/01 02:17:37;;;;;;;8.17;4.23;;;;;;;-145.18;100.00;46650.63;4986233;28;20041;-68
2023/05/01 02:20:04;;;;;;;6.43;4.07;;;;;;;-145.18;100.00;46635.00;4992727;28;20062;-68
2023/05/01 02:22:30;;;;;;;9.30;4.30;;;;;;;-145.18;100.00;46642.81;4992637;28;20280;-68
2023/05/01 02:24:58;;;;;;;6.87;4.17;;;;;;;-145.18;100.00;46636.94;4975227;28;20129;-68
2023/05/01 02:27:31;;;;;;;8.03;4.10;;;;;;;-145.18;100.00;46640.88;4956176;28;20353;-68
2023/05/01 02:29:56;;;;;;;5.97;4.10;;;;;;;-145.18;100.00;46629.13;4973174;28;20030;-68
2023/05/01 02:32:22;;;;;;;8.43;4.93;;;;;;;-145.18;100.00;46635.00;4978603;28;20034;-68
2023/05/01 02:34:48;;;;;;;10.10;4.07;;;;;;;-145.18;100.00;46631.09;4989936;28;20120;-68
2023/05/01 02:37:14;;;;;;;7.03;3.87;;;;;;;-145.18;100.00;46636.94;4991986;28;20510;-68
2023/05/01 02:39:39;;;;;;;6.10;3.73;;;;;;;-145.18;100.00;46633.06;4988320;28;20522;-68
2023/05/01 02:42:08;;;;;;;7.63;3.60;;;;;;;-145.18;100.00;46638.91;4992285;28;20034;-69
2023/05/01 02:44:58;;;;;;;7.93;4.30;;;;;;;-145.18;100.00;46636.94;4992532;28;20104;-68
2023/05/01 02:47:26;;;;;;;7.60;3.93;;;;;;;-145.18;100.00;46638.91;4982540;28;20535;-69
2023/05/01 02:49:53;;;;;;;6.80;4.10;;;;;;;-145.18;100.00;46635.00;4992051;28;20275;-68
2023/05/01 02:52:19;;;;;;;7.47;3.90;;;;;;;-145.18;100.00;46640.88;4991438;28;20030;-68
2023/05/01 02:54:45;;;;;;;6.67;4.30;;;;;;;-145.18;100.00;46635.00;4981515;28;20296;-68
2023/05/01 02:57:11;;;;;;;7.07;4.33;;;;;;;-145.18;100.00;46629.13;4990603;28;20035;-68
2023/05/01 02:59:37;;;;;;;7.37;4.13;;;;;;;-145.18;100.00;46631.09;4991702;28;20046;-68
2023/05/01 03:02:03;;;;;;;7.97;4.03;;;;;;;-145.18;100.00;46636.94;4974835;28;20027;-67
2023/05/01 03:04:28;;;;;;;5.33;3.80;;;;;;;-145.18;100.00;46642.81;4972590;28;20035;-69
2023/05/01 03:06:54;;;;;;;9.07;4.40;;;;;;;-145.18;100.00;46633.06;4972549;28;20066;-69
2023/05/01 03:09:20;;;;;;;7.97;4.53;;;;;;;-145.18;100.00;46633.06;4971886;28;20039;-69
2023/05/01 03:11:46;;;;;;;9.53;4.30;;;;;;;-145.18;100.00;46638.91;4972444;28;20114;-69
2023/05/01 03:14:11;;;;;;;7.77;5.07;;;;;;;-145.18;100.00;46629.13;4971648;28;20123;-69
2023/05/01 03:16:37;;;;;;;6.67;4.07;;;;;;;-145.18;100.00;46652.59;4972361;28;20185;-68
2023/05/01 03:19:02;;;;;;;11.23;3.77;;;;;;;-145.18;100.00;46635.00;4971894;28;20399;-69
2023/05/01 03:21:28;;;;;;;8.00;4.20;;;;;;;-145.18;100.00;46633.06;4954738;28;20046;-68
2023/05/01 03:23:53;;;;;;;13.43;3.97;;;;;;;-145.18;100.00;46636.94;4972006;28;20031;-69
2023/05/01 03:26:18;;;;;;;6.40;3.87;;;;;;;-145.18;100.00;46636.94;4971673;28;20043;-68
2023/05/01 03:28:44;;;;;;;7.47;4.30;;;;;;;-145.18;100.00;46636.94;4971087;28;20097;-68
2023/05/01 03:31:09;;;;;;;7.90;4.17;;;;;;;-145.18;100.00;46636.94;4971731;28;20491;-68
2023/05/01 03:33:35;;;;;;;8.13;3.87;;;;;;;-145.18;100.00;46638.91;4971582;28;20078;-68
2023/05/01 03:36:02;;;;;;;10.27;3.47;;;;;;;-145.18;100.00;46636.94;4971852;28;20492;-68
2023/05/01 03:38:31;;;;;;;8.10;4.00;;;;;;;-145.18;100.00;46633.06;4971699;28;20026;-68
2023/05/01 03:40:57;;;;;;;7.67;4.53;;;;;;;-145.18;100.00;46636.94;4971633;28;20034;-68
2023/05/01 03:43:23;;;;;;;7.30;4.30;;;;;;;-145.18;100.00;46629.13;4971773;28;20403;-68
2023/05/01 03:45:50;;;;;;;7.90;4.17;;;;;;;-145.18;100.00;46633.06;4971505;28;20289;-69
2023/05/01 03:48:16;;;;;;;8.10;3.87;;;;;;;-145.18;100.00;46635.00;4971212;28;20026;-68
2023/05/01 03:50:41;;;;;;;8.47;4.00;;;;;;;-145.18;100.00;46633.06;4967504;28;20284;-68
2023/05/01 03:53:06;;;;;;;8.33;3.93;;;;;;;-145.18;100.00;46631.09;4970491;28;20035;-68
2023/05/01 03:55:32;;;;;;;10.67;3.87;;;;;;;-145.18;100.00;46636.94;4971225;28;20050;-68
2023/05/01 03:57:57;;;;;;;9.83;4.27;;;;;;;-145.18;100.00;46635.00;4970699;28;20183;-68
2023/05/01 04:00:23;;;;;;;8.10;4.40;;;;;;;-145.18;100.00;46636.94;4971037;28;20034;-68
2023/05/01 04:02:48;;;;;;;9.60;4.20;;;;;;;-145.18;100.00;46636.94;4970459;28;20385;-69
2023/05/01 04:05:14;;;;;;;19.33;4.43;;;;;;;-145.18;100.00;46633.06;4970396;28;20089;-68
2023/05/01 04:07:40;;;;;;;11.70;4.43;;;;;;;-145.18;100.00;46635.00;4970395;28;20027;-68
2023/05/01 04:10:08;;;;;;;9.10;4.40;;;;;;;-145.18;100.00;46633.06;4969073;28;20442;-68
2023/05/01 04:12:33;;;;;;;8.37;3.93;;;;;;;-145.18;100.00;46636.94;4969384;28;20435;-68
2023/05/01 04:14:59;;;;;;;9.67;3.70;;;;;;;-145.18;100.00;46629.13;4969302;28;20038;-69
2023/05/01 04:17:24;;;;;;;9.13;4.40;;;;;;;-145.18;100.00;46627.19;4969472;28;20085;-68
2023/05/01 04:19:49;;;;;;;14.87;3.97;;;;;;;-145.18;100.00;46635.00;4969602;28;20106;-68
2023/05/01 04:22:15;;;;;;;7.90;3.77;;;;;;;-145.18;100.00;46635.00;4969723;28;20035;-68
2023/05/01 04:24:41;;;;;;;6.77;4.30;;;;;;;-145.18;100.00;46629.13;4967954;28;20102;-68
2023/05/01 04:27:06;;;;;;;8.73;4.30;;;;;;;-145.18;100.00;46633.06;4969390;28;20027;-69
2023/05/01 04:29:31;;;;;;;11.17;4.37;;;;;;;-145.18;100.00;46625.22;4970358;28;20114;-69
2023/05/01 04:31:57;;;;;;;8.77;4.07;;;;;;;-145.18;100.00;46635.00;4970595;28;20066;-69
2023/05/01 04:34:22;;;;;;;10.10;4.17;;;;;;;-145.18;100.00;46631.09;4970698;28;20090;-69
2023/05/01 04:36:48;;;;;;;9.10;4.13;;;;;;;-145.18;100.00;46629.13;4970715;28;20086;-69
2023/05/01 04:39:13;;;;;;;8.20;4.10;;;;;;;-145.18;100.00;46633.06;4970809;28;20031;-68
2023/05/01 04:41:39;;;;;;;7.63;3.70;;;;;;;-145.18;100.00;46623.28;4973328;28;20430;-68
2023/05/01 04:44:04;;;;;;;8.63;4.17;;;;;;;-145.18;100.00;46625.22;4969687;28;20102;-69
2023/05/01 04:46:30;;;;;;;10.40;4.30;;;;;;;-145.18;100.00;46627.19;4975137;28;20121;-69
2023/05/01 04:48:55;;;;;;;9.37;4.13;;;;;;;-145.18;100.00;46623.28;4974604;28;20480;-68
2023/05/01 04:51:21;;;;;;;6.23;3.93;;;;;;;-145.18;100.00;46627.19;4973921;28;20043;-68
2023/05/01 04:53:47;;;;;;;8.60;4.00;;;;;;;-145.18;100.00;46631.09;4952886;28;20047;-69
2023/05/01 04:56:12;;;;;;;7.77;4.07;;;;;;;-145.18;100.00;46635.00;4972860;28;20066;-68
2023/05/01 04:58:37;;;;;;;12.40;4.33;;;;;;;-145.18;100.00;46633.06;4974696;28;20043;-68
2023/05/01 05:01:03;;;;;;;9.33;4.13;;;;;;;-145.18;100.00;46629.13;4974646;28;20078;-69
2023/05/01 05:03:28;;;;;;;6.43;3.70;;;;;;;-145.18;100.00;46627.19;4974294;28;20106;-68
2023/05/01 05:05:54;;;;;;;7.97;3.57;;;;;;;-145.18;100.00;46633.06;4973633;28;20059;-68
2023/05/01 05:08:19;;;;;;;6.73;4.00;;;;;;;-145.18;100.00;46635.00;4974076;28;20043;-69
2023/05/01 05:10:45;;;;;;;7.83;3.83;;;;;;;-145.18;100.00;46638.91;4974535;28;20073;-68
2023/05/01 05:13:10;;;;;;;7.23;3.67;;;;;;;-145.18;100.00;46633.06;4974215;28;20049;-68
2023/05/01 05:15:35;;;;;;;10.60;4.63;;;;;;;-145.18;100.00;46623.28;4974695;28;20114;-68
2023/05/01 05:18:01;;;;;;;10.37;4.20;;;;;;;-145.18;100.00;46631.09;4974135;28;20038;-68
2023/05/01 05:20:26;;;;;;;8.10;4.33;;;;;;;-145.18;100.00;46625.22;4974485;28;20066;-68
2023/05/01 05:22:52;;;;;;;9.90;4.27;;;;;;;-145.18;100.00;46629.13;4956596;28;20438;-68
2023/05/01 05:25:18;;;;;;;7.63;4.53;;;;;;;-145.18;100.00;46629.13;4974358;28;20426;-68
2023/05/01 05:27:43;;;;;;;11.63;4.60;;;;;;;-145.18;100.00;46623.28;4973164;28;20045;-69
2023/05/01 05:30:09;;;;;;;11.10;4.77;;;;;;;-145.18;100.00;46627.19;4973671;28;20388;-68
2023/05/01 05:32:34;;;;;;;11.50;4.30;;;;;;;-145.18;100.00;46621.31;4974437;28;20046;-69
2023/05/01 05:35:00;;;;;;;8.80;4.00;;;;;;;-145.18;100.00;46621.31;4976524;28;20027;-69
2023/05/01 05:37:25;;;;;;;7.33;4.07;;;;;;;-145.18;100.00;46625.22;4976493;28;20031;-69
2023/05/01 05:39:53;;;;;;;8.00;4.50;;;;;;;-145.18;100.00;46623.28;4971824;28;20110;-69
2023/05/01 05:42:19;;;;;;;7.57;4.43;;;;;;;-145.18;100.00;46623.28;4973699;28;20105;-69
2023/05/01 05:44:44;;;;;;;10.10;4.53;;;;;;;-145.18;100.00;46623.28;4976079;28;20472;-68
2023/05/01 05:47:10;;;;;;;13.80;4.17;;;;;;;-145.18;100.00;46629.13;4981161;28;20097;-69
2023/05/01 05:49:35;;;;;;;7.13;4.23;;;;;;;-145.18;100.00;46623.28;4982424;28;20371;-69
2023/05/01 05:52:00;;;;;;;7.00;4.57;;;;;;;-145.18;100.00;46623.28;4981590;28;20046;-69
2023/05/01 05:54:26;;;;;;;7.00;4.33;;;;;;;-145.18;100.00;46617.41;4976764;28;20041;-69
2023/05/01 05:56:51;;;;;;;9.03;4.30;;;;;;;-145.18;100.00;46617.41;4977955;28;20036;-68
2023/05/01 05:59:17;;;;;;;7.67;5.07;;;;;;;-145.18;100.00;46617.41;4981588;28;20546;-69
2023/05/01 06:01:42;;;;;;;10.57;5.10;;;;;;;-145.18;100.00;46613.50;4976619;28;20043;-69
2023/05/01 06:04:08;;;;;;;10.93;5.37;;;;;;;-145.18;100.00;46615.47;4972999;28;20061;-69
2023/05/01 06:06:33;;;;;;;9.13;5.53;;;;;;;-145.18;100.00;46621.31;4973742;28;20069;-69
2023/05/01 06:08:59;;;;;;;15.87;6.03;;;;;;;-145.18;100.00;46615.47;4954749;28;20134;-70
2023/05/01 06:11:25;;;;;;;12.00;6.10;;;;;;;-145.18;100.00;46617.41;4973511;28;20031;-69
2023/05/01 06:13:51;;;;;;;10.47;6.63;;;;;;;-145.18;100.00;46572.50;4973164;28;20383;-69
2023/05/01 06:16:16;;;;;;;8.93;6.37;;;;;;;-145.18;100.00;46570.53;4972929;28;20034;-69
2023/05/01 06:18:42;;;;;;;10.67;6.50;;;;;;;-145.18;100.00;46615.47;4973328;28;20026;-69
2023/05/01 06:21:07;;;;;;;15.87;6.13;;;;;;;-145.18;100.00;46613.50;4973320;28;20043;-69
2023/05/01 06:23:32;;;;;;;13.70;6.13;;;;;;;-145.18;100.00;46611.56;4973020;28;20054;-69
2023/05/01 06:25:58;;;;;;;9.50;5.60;;;;;;;-145.18;100.00;46570.53;4973091;28;20045;-69
2023/05/01 06:28:24;;;;;;;10.93;5.93;;;;;;;-145.18;100.00;46615.47;4972842;28;20026;-69
2023/05/01 06:30:49;;;;;;;12.13;6.00;;;;;;;-145.18;100.00;46617.41;4973382;28;20070;-69
2023/05/01 06:33:15;;;;;;;10.50;7.00;;;;;;;-145.18;100.00;46570.53;4972563;28;20067;-69
2023/05/01 06:35:40;;;;;;;14.53;5.77;;;;;;;-145.18;100.00;46566.63;4972983;28;20037;-69
2023/05/01 06:38:05;;;;;;;12.07;6.27;;;;;;;-145.18;100.00;46572.50;4972469;28;20455;-69
2023/05/01 06:40:33;;;;;;;10.90;5.50;;;;;;;-145.18;100.00;46570.53;4973169;28;20043;-69
2023/05/01 06:42:59;;;;;;;16.47;7.07;;;;;;;-145.18;100.00;46574.44;4971891;28;20919;-69
2023/05/01 06:45:25;;;;;;;11.67;6.67;;;;;;;-145.18;100.00;46570.53;4972354;28;20050;-70
2023/05/01 06:47:50;;;;;;;10.80;6.67;;;;;;;-145.18;100.00;46619.38;4972399;28;20297;-70
2023/05/01 06:50:15;;;;;;;11.77;5.93;;;;;;;-145.18;100.00;46629.13;4972469;28;20496;-70
2023/05/01 06:52:41;;;;;;;10.10;5.77;;;;;;;-145.18;100.00;46640.88;4972412;28;20038;-69
2023/05/01 06:55:07;;;;;;;11.53;5.90;;;;;;;-145.18;100.00;46660.41;4971759;28;20134;-70
2023/05/01 06:57:32;;;;;;;10.40;6.53;;;;;;;-145.18;100.00;46650.63;4972571;28;20038;-70
2023/05/01 06:59:57;;;;;;;13.43;6.37;;;;;;;-145.18;100.00;46642.81;4972460;28;20050;-70
2023/05/01 07:02:23;;;;;;;11.63;5.47;;;;;;;-145.18;100.00;46656.50;4971971;28;20062;-69
2023/05/01 07:04:48;;;;;;;11.50;6.70;;;;;;;-145.18;100.00;46642.81;4971663;28;20674;-70
2023/05/01 07:07:13;;;;;;;10.97;6.20;;;;;;;-145.18;100.00;46636.94;4972493;28;20061;-70
2023/05/01 07:09:40;;;;;;;13.10;6.67;;;;;;;-145.18;100.00;46578.34;4972305;28;20042;-70
2023/05/01 07:12:05;;;;;;;11.60;6.43;;;;;;;-145.18;100.00;46570.53;4972320;28;20030;-70
2023/05/01 07:14:31;;;;;;;8.80;5.17;;;;;;;-145.18;100.00;46560.78;4971979;28;20089;-70
2023/05/01 07:16:57;;;;;;;8.03;5.40;;;;;;;-145.18;100.00;46562.72;4972445;28;20035;-70
2023/05/01 07:19:22;;;;;;;13.57;5.30;;;;;;;-145.18;100.00;46560.78;4972039;28;20042;-69
2023/05/01 07:21:48;;;;;;;12.43;5.30;;;;;;;-145.18;100.00;46564.69;4972380;28;20034;-69
2023/05/01 07:24:13;;;;;;;16.90;5.60;;;;;;;-145.18;100.00;46556.88;4954349;28;20047;-69
2023/05/01 07:26:38;;;;;;;12.97;5.20;;;;;;;-145.18;100.00;46562.72;4971875;28;20122;-69
2023/05/01 07:29:04;;;;;;;10.53;5.00;;;;;;;-145.18;100.00;46554.91;4971945;28;20518;-69
2023/05/01 07:31:29;;;;;;;10.10;5.70;;;;;;;-145.18;100.00;46554.91;4972168;28;20027;-69
2023/05/01 07:33:55;;;;;;;12.67;5.33;;;;;;;-145.18;100.00;46549.06;4971563;28;20049;-69
2023/05/01 07:36:21;;;;;;;15.63;5.90;;;;;;;-145.18;100.00;46551.00;4971670;28;20118;-69
2023/05/01 07:38:47;;;;;;;10.13;5.80;;;;;;;-145.18;100.00;46554.91;4971944;28;20031;-70
2023/05/01 07:41:13;;;;;;;12.27;5.80;;;;;;;-145.18;100.00;46549.06;4971630;28;20038;-70
2023/05/01 07:43:38;;;;;;;11.03;5.57;;;;;;;-145.18;100.00;46556.88;4971742;28;20033;-70
2023/05/01 07:46:04;;;;;;;11.40;6.50;;;;;;;-145.18;100.00;46562.72;4971597;28;20039;-70
2023/05/01 07:48:31;;;;;;;11.57;6.30;;;;;;;-145.18;100.00;46564.69;4971696;28;20035;-70
2023/05/01 07:51:00;;;;;;;12.83;5.90;;;;;;;-145.18;100.00;46570.53;4971862;28;20030;-69
2023/05/01 07:53:25;;;;;;;11.00;5.27;;;;;;;-145.18;100.00;46572.50;4971410;28;20066;-69
2023/05/01 07:55:51;;;;;;;9.70;5.67;;;;;;;-145.18;100.00;46570.53;4971678;28;20088;-70
2023/05/01 07:58:16;;;;;;;11.37;5.57;;;;;;;-145.18;100.00;46578.34;4971493;28;20058;-70
2023/05/01 08:00:44;;;;;;;11.90;5.80;;;;;;;-145.18;100.00;46580.31;4971567;28;20395;-69
2023/05/01 08:03:09;;;;;;;14.43;6.40;;;;;;;-145.18;100.00;46590.06;4970993;28;20050;-69
2023/05/01 08:05:34;;;;;;;11.77;6.20;;;;;;;-145.18;100.00;46593.97;4971495;28;20570;-69
2023/05/01 08:08:00;;;;;;;14.47;5.97;;;;;;;-145.18;100.00;46588.13;4971208;28;20062;-69
2023/05/01 08:10:27;;;;;;;10.50;6.00;;;;;;;-145.18;100.00;46588.13;4971215;28;20046;-69
2023/05/01 08:12:52;;;;;;;8.23;5.23;;;;;;;-145.18;100.00;46599.84;4971463;28;20038;-69
2023/05/01 08:15:19;;;;;;;17.53;6.93;;;;;;;-145.18;100.00;46597.88;4970839;28;20128;-69
2023/05/01 08:17:45;;;;;;;9.20;5.50;;;;;;;-145.18;100.00;46599.84;4971243;28;20486;-69
2023/05/01 08:20:11;;;;;;;10.50;5.47;;;;;;;-145.18;100.00;46597.88;4971003;28;20078;-69
2023/05/01 08:22:37;;;;;;;11.27;5.40;;;;;;;-145.18;100.00;46597.88;4971400;28;20042;-70
2023/05/01 08:25:03;;;;;;;16.03;6.60;;;;;;;-145.18;100.00;46609.59;4971341;28;20053;-70
2023/05/01 08:27:28;;;;;;;13.10;6.10;;;;;;;-145.18;100.00;46627.19;4971555;28;20027;-69
2023/05/01 08:29:54;;;;;;;13.13;6.50;;;;;;;-145.18;100.00;46662.34;4971075;28;20400;-70
2023/05/01 08:32:20;;;;;;;9.50;6.10;;;;;;;-145.18;100.00;46691.66;4970436;28;20597;-70
2023/05/01 08:34:45;;;;;;;12.33;5.93;;;;;;;-145.18;100.00;46693.59;4970447;28;20096;-70
2023/05/01 08:37:11;;;;;;;12.87;5.70;;;;;;;-145.18;100.00;46703.38;4971067;28;20119;-69
2023/05/01 08:39:36;;;;;;;11.03;5.40;;;;;;;-145.18;100.00;46722.91;4971041;28;20076;-69
2023/05/01 08:42:02;;;;;;;11.77;5.63;;;;;;;-145.18;100.00;46783.47;4971042;28;20035;-70
2023/05/01 08:44:30;;;;;;;9.90;5.40;;;;;;;-145.18;100.00;46887.00;4953333;28;20114;-69
2023/05/01 08:47:18;;;;;;;11.17;5.87;;;;;;;-145.18;100.00;46851.81;4970985;28;20031;-70
2023/05/01 08:49:46;;;;;;;10.97;5.90;;;;;;;-145.18;100.00;46834.25;4960427;28;20039;-70
2023/05/01 08:52:12;;;;;;;10.67;5.80;;;;;;;-145.18;100.00;46761.97;4970632;28;20085;-70
2023/05/01 08:54:43;;;;;;;13.30;6.20;;;;;;;-145.18;100.00;47088.19;4970711;28;20073;-70
2023/05/01 08:57:10;;;;;;;13.23;5.67;;;;;;;-145.18;100.00;47351.94;4970864;28;20034;-70
2023/05/01 08:59:37;;;;;;;10.87;5.80;;;;;;;-145.18;100.00;47367.56;4970639;28;20093;-70
2023/05/01 09:02:06;;;;;;;8.30;5.43;;;;;;;-145.18;100.00;47371.47;4970789;28;20054;-70
2023/05/01 09:04:33;;;;;;;11.10;5.70;;;;;;;-145.18;100.00;47379.28;4970508;28;20058;-70
2023/05/01 09:07:00;;;;;;;10.03;5.20;;;;;;;-145.18;100.00;47349.97;4970978;28;20361;-70
2023/05/01 09:09:29;;;;;;;9.27;5.43;;;;;;;-145.18;100.00;47344.13;4970527;28;20039;-70
2023/05/01 09:11:59;;;;;;;8.73;5.37;;;;;;;-145.18;100.00;47322.63;4970663;28;20043;-70
2023/05/01 09:14:25;;;;;;;6.83;4.50;;;;;;;-145.18;100.00;47308.97;4970408;28;20042;-69
2023/05/01 09:16:51;;;;;;;9.87;5.60;;;;;;;-145.18;100.00;47326.53;4970851;28;20476;-69
2023/05/01 09:19:17;;;;;;;7.33;4.97;;;;;;;-145.18;100.00;47297.22;4970407;28;20038;-70
2023/05/01 09:21:43;;;;;;;9.33;5.07;;;;;;;-145.18;100.00;47326.53;4970718;28;20035;-69
2023/05/01 09:24:08;;;;;;;10.17;4.67;;;;;;;-145.18;100.00;47391.00;4970263;28;20081;-69
2023/05/01 09:26:38;;;;;;;11.17;5.63;;;;;;;-145.18;100.00;47402.72;4971425;28;20043;-69
2023/05/01 09:29:04;;;;;;;6.83;4.87;;;;;;;-145.18;100.00;47432.03;4974029;28;20034;-69
2023/05/01 09:31:33;;;;;;;12.27;5.00;;;;;;;-145.18;100.00;47396.88;4974425;28;20063;-69
2023/05/01 09:34:03;;;;;;;7.90;5.00;;;;;;;-145.18;100.00;47320.69;4973703;28;20039;-69
2023/05/01 09:36:31;;;;;;;9.77;5.00;;;;;;;-145.18;100.00;46890.91;4974223;28;20030;-69
2023/05/01 09:38:57;;;;;;;18.13;5.37;;;;;;;-145.18;100.00;46756.09;4973983;28;20026;-69
2023/05/01 09:41:23;;;;;;;10.30;5.53;;;;;;;-145.18;100.00;46750.25;4973992;28;20434;-69
2023/05/01 09:43:53;;;;;;;10.70;5.00;;;;;;;-145.18;100.00;46761.97;4973949;28;20022;-69
2023/05/01 09:46:20;;;;;;;14.23;5.57;;;;;;;-145.18;100.00;46771.75;4973697;28;20431;-69
2023/05/01 09:48:57;;;;;;;12.83;5.50;;;;;;;-145.18;100.00;46787.38;4973622;28;20035;-69
2023/05/01 09:51:27;;;;;;;11.20;5.47;;;;;;;-145.18;100.00;46836.19;4973627;28;20081;-69
2023/05/01 09:53:58;;;;;;;11.63;5.23;;;;;;;-145.18;100.00;46845.97;4973434;28;20527;-69
2023/05/01 09:56:28;;;;;;;11.23;5.57;;;;;;;-145.18;100.00;46996.38;4973768;28;20027;-69
2023/05/01 09:58:55;;;;;;;10.73;5.13;;;;;;;-145.18;100.00;46922.16;4973178;28;20042;-69
2023/05/01 10:01:40;;;;;;;10.93;5.90;;;;;;;-145.18;100.00;47334.34;4973535;28;20125;-69
2023/05/01 10:04:08;;;;;;;9.38;5.53;;;;;;;-145.18;100.00;47012.00;4973261;28;20503;-69
2023/05/01 10:06:33;;;;;;;14.10;5.80;;;;;;;-145.18;100.00;46840.09;4973757;28;20126;-69
2023/05/01 10:08:59;;;;;;;7.90;5.57;;;;;;;-145.18;100.00;46859.63;4973147;28;20387;-69
2023/05/01 10:11:25;;;;;;;13.60;5.73;;;;;;;-145.18;100.00;46799.09;4973354;28;20030;-69
2023/05/01 10:14:08;;;;;;;10.70;5.53;;;;;;;-145.18;100.00;46777.59;4972983;28;20041;-69
2023/05/01 10:16:35;;;;;;;12.33;5.17;;;;;;;-145.18;100.00;46773.69;4973457;28;20502;-69
2023/05/01 10:19:01;;;;;;;7.70;5.10;;;;;;;-145.18;100.00;46744.38;4955733;28;20509;-69
2023/05/01 10:21:26;;;;;;;12.27;5.90;;;;;;;-145.18;100.00;46763.91;4973166;28;20039;-69
2023/05/01 10:23:52;;;;;;;12.03;5.73;;;;;;;-145.18;100.00;47031.53;4975883;28;20411;-69
2023/05/01 10:26:17;;;;;;;9.47;5.80;;;;;;;-145.18;100.00;46844.00;4980872;28;20474;-69
2023/05/01 10:28:46;;;;;;;13.03;6.27;;;;;;;-145.18;100.00;46750.25;4981248;28;20379;-69
2023/05/01 10:31:12;;;;;;;12.73;7.70;;;;;;;-145.18;100.00;46711.19;4982049;28;20022;-69
2023/05/01 10:33:39;;;;;;;11.23;5.87;;;;;;;-145.18;100.00;46808.84;4980481;28;20050;-69
2023/05/01 10:36:10;;;;;;;11.47;6.30;;;;;;;-145.18;100.00;46754.16;4980922;28;20450;-69
2023/05/01 10:38:37;;;;;;;11.33;5.47;;;;;;;-145.18;100.00;46720.94;4977214;28;20031;-69
2023/05/01 10:41:03;;;;;;;18.07;6.20;;;;;;;-145.18;100.00;47305.06;4981001;28;20034;-69
2023/05/01 10:43:29;;;;;;;9.83;4.77;;;;;;;-145.18;100.00;47375.38;4982164;28;20173;-69
2023/05/01 10:46:07;;;;;;;10.30;6.00;;;;;;;-145.18;100.00;47359.75;4977741;28;20039;-69
2023/05/01 10:48:42;;;;;;;11.13;6.47;;;;;;;-145.18;100.00;47373.44;4979861;28;20808;-69
2023/05/01 10:51:11;;;;;;;20.80;6.30;;;;;;;-145.18;100.00;47344.13;4980093;28;20026;-69
2023/05/01 10:53:37;;;;;;;12.20;5.73;;;;;;;-145.18;100.00;47301.16;4977460;28;20507;-69
2023/05/01 10:56:04;;;;;;;16.03;6.53;;;;;;;-145.18;100.00;47308.97;4980787;28;20026;-69
2023/05/01 10:58:36;;;;;;;11.60;5.20;;;;;;;-145.18;100.00;47353.88;4981683;28;20026;-69
2023/05/01 11:01:30;;;;;;;15.57;6.23;;;;;;;-145.18;100.00;47379.28;4963463;28;20389;-68
2023/05/01 11:03:57;;;;;;;9.13;4.93;;;;;;;-145.18;100.00;47422.28;4977214;28;20043;-68
2023/05/01 11:06:23;;;;;;;13.27;6.17;;;;;;;-145.18;100.00;47398.81;4977600;28;20408;-69